Time;durP1;ratioP1;P1;durP2;ratioP2;P2;SDS_P1;SDS_P2;PMS_P1;PMS_P2;Temp;Humidity;BMP_temperature;BMP_pressure;BME280_temperature;BME280_humidity;BME280_pressure;Samples;Min_cycle;Max_cycle;Signal;HPM_P1;HPM_P2
2022/08/31 00:05:37;;;;;;;10.70;6.97;;;;;;;20.06;60.37;98850.53;5030589;28;20111;-50
2022/08/31 00:08:03;;;;;;;11.40;6.70;;;;;;;20.00;60.47;98854.06;5030080;28;20048;-54
2022/08/31 00:10:29;;;;;;;13.82;7.13;;;;;;;19.96;60.66;98850.09;5011225;28;20034;-49
2022/08/31 00:12:55;;;;;;;13.45;6.40;;;;;;;19.89;61.01;98856.34;5011116;28;20038;-54
2022/08/31 00:15:22;;;;;;;12.98;6.97;;;;;;;19.86;61.03;98869.50;5011682;28;20032;-58
2022/08/31 00:17:48;;;;;;;11.05;7.05;;;;;;;19.81;61.13;98856.56;5030530;28;20121;-50
2022/08/31 00:20:15;;;;;;;12.63;6.65;;;;;;;19.77;61.19;98852.56;5030653;28;20029;-52
2022/08/31 00:22:40;;;;;;;11.98;7.75;;;;;;;19.73;61.57;98859.47;5028851;28;20036;-51
2022/08/31 00:25:07;;;;;;;14.52;6.80;;;;;;;19.70;61.72;98858.00;5030330;28;20041;-52
2022/08/31 00:27:32;;;;;;;11.63;6.82;;;;;;;19.69;61.85;98852.78;5030106;28;21127;-54
2022/08/31 00:29:58;;;;;;;12.68;6.50;;;;;;;19.66;61.52;98856.75;5026516;28;20482;-48
2022/08/31 00:32:24;;;;;;;11.15;6.60;;;;;;;19.62;61.85;98856.31;5018917;28;20036;-52
2022/08/31 00:34:51;;;;;;;9.60;6.57;;;;;;;19.58;61.69;98851.50;5025770;28;20037;-52
2022/08/31 00:37:17;;;;;;;9.55;6.43;;;;;;;19.54;61.82;98853.81;5012755;28;20478;-54
2022/08/31 00:39:43;;;;;;;11.25;6.78;;;;;;;19.33;62.10;98814.09;5009154;28;20408;-53
2022/08/31 00:42:08;;;;;;;10.13;6.40;;;;;;;19.55;62.15;98846.50;5010676;28;20030;-51
2022/08/31 00:44:34;;;;;;;13.15;6.35;;;;;;;19.44;61.96;98848.78;5024613;28;20075;-53
2022/08/31 00:47:00;;;;;;;14.18;6.43;;;;;;;19.47;62.29;98858.38;5033789;28;20041;-52
2022/08/31 00:49:28;;;;;;;9.20;6.57;;;;;;;19.45;62.34;98863.19;5031224;28;20036;-49
2022/08/31 00:52:01;;;;;;;11.55;6.97;;;;;;;19.42;62.33;98863.59;5032937;28;20029;-54
2022/08/31 00:54:33;;;;;;;10.82;6.30;;;;;;;19.43;62.21;98866.13;5033602;28;20366;-55
2022/08/31 00:56:59;;;;;;;11.13;6.75;;;;;;;19.34;62.67;98856.47;5018170;28;20481;-55
2022/08/31 00:59:26;;;;;;;10.98;6.78;;;;;;;19.26;62.56;98849.34;5013778;28;20037;-53
2022/08/31 01:01:51;;;;;;;10.73;6.50;;;;;;;19.27;62.56;98853.72;5013857;28;20041;-53
2022/08/31 01:04:17;;;;;;;11.90;6.82;;;;;;;19.23;63.11;98847.03;5031446;28;20436;-52
2022/08/31 01:06:44;;;;;;;9.35;6.57;;;;;;;19.23;62.91;98855.19;5033201;28;20164;-53
2022/08/31 01:09:11;;;;;;;10.95;6.88;;;;;;;19.18;63.24;98846.81;5032954;28;20037;-50
2022/08/31 01:11:39;;;;;;;10.85;6.75;;;;;;;19.19;63.33;98854.78;5032234;28;20083;-51
2022/08/31 01:14:07;;;;;;;11.88;7.07;;;;;;;19.15;63.48;98850.78;5033359;28;20485;-49
2022/08/31 01:16:52;;;;;;;9.70;6.85;;;;;;;19.25;63.35;98855.00;5029357;28;20099;-50
2022/08/31 01:19:35;;;;;;;11.38;6.35;;;;;;;19.16;64.16;98848.91;5013331;28;20038;-49
2022/08/31 01:22:01;;;;;;;12.63;7.07;;;;;;;19.07;64.26;98849.09;5013282;28;20046;-53
2022/08/31 01:24:27;;;;;;;12.27;7.30;;;;;;;19.04;64.25;98852.19;5013600;28;20041;-50
2022/08/31 01:26:53;;;;;;;9.85;7.00;;;;;;;19.03;64.87;98855.94;5027960;28;20434;-52
2022/08/31 01:29:19;;;;;;;9.52;7.53;;;;;;;19.01;64.98;98840.94;5033145;28;20180;-52
2022/08/31 01:31:46;;;;;;;11.85;7.35;;;;;;;19.01;65.26;98851.78;5033024;28;20029;-53
2022/08/31 01:34:12;;;;;;;13.40;7.65;;;;;;;18.99;65.54;98849.25;5031549;28;20385;-51
2022/08/31 01:36:40;;;;;;;10.20;7.22;;;;;;;18.99;65.32;98853.88;5031446;28;20489;-54
2022/08/31 01:39:08;;;;;;;9.52;7.53;;;;;;;18.89;65.52;98840.66;5030510;28;20112;-53
2022/08/31 01:41:40;;;;;;;10.40;7.45;;;;;;;18.96;65.88;98843.41;5033322;28;20045;-49
2022/08/31 01:44:06;;;;;;;10.90;7.13;;;;;;;18.94;65.71;98846.31;5015218;28;20048;-52
2022/08/31 01:46:31;;;;;;;10.40;7.60;;;;;;;18.90;65.94;98834.19;5023226;28;20056;-46
2022/08/31 01:48:57;;;;;;;10.73;7.80;;;;;;;18.87;66.06;98835.41;5033108;28;20413;-51
2022/08/31 01:51:22;;;;;;;14.50;8.00;;;;;;;18.88;66.15;98838.97;5033281;28;20030;-53
2022/08/31 01:53:50;;;;;;;10.07;7.72;;;;;;;18.88;66.10;98841.69;5030263;28;20049;-53
2022/08/31 01:56:21;;;;;;;10.07;7.00;;;;;;;18.87;66.24;98834.59;5032552;28;20105;-50
2022/08/31 01:58:46;;;;;;;8.32;7.53;;;;;;;18.82;66.46;98834.38;5024440;28;20152;-51
2022/08/31 02:01:12;;;;;;;14.88;8.25;;;;;;;18.66;66.70;98814.69;5032500;28;20065;-52
2022/08/31 02:03:37;;;;;;;12.77;7.65;;;;;;;18.76;66.46;98828.69;5032281;28;20041;-50
2022/08/31 02:06:12;;;;;;;13.05;8.23;;;;;;;18.78;66.45;98829.31;5019035;28;20064;-51
2022/08/31 02:08:38;;;;;;;11.98;7.60;;;;;;;18.76;66.55;98834.13;5013099;28;20091;-54
2022/08/31 02:11:05;;;;;;;13.18;7.55;;;;;;;18.76;66.69;98831.41;5012537;28;20545;-50
2022/08/31 02:13:32;;;;;;;12.55;7.97;;;;;;;18.72;66.79;98830.16;5012443;28;20029;-51
2022/08/31 02:15:57;;;;;;;13.02;8.18;;;;;;;18.72;66.70;98827.44;5012967;28;20057;-57
2022/08/31 02:18:23;;;;;;;13.02;8.50;;;;;;;18.53;66.94;98803.78;5014183;28;20029;-51
2022/08/31 02:20:48;;;;;;;10.40;8.00;;;;;;;18.69;66.76;98822.41;5031990;28;20065;-50
2022/08/31 02:23:14;;;;;;;10.20;7.47;;;;;;;18.67;66.85;98829.91;5031858;28;20491;-51
2022/08/31 02:25:39;;;;;;;13.20;8.20;;;;;;;18.63;66.91;98818.63;5020042;28;20060;-49
2022/08/31 02:28:05;;;;;;;16.67;8.02;;;;;;;18.61;67.02;98817.19;5012373;28;20479;-50
2022/08/31 02:30:30;;;;;;;12.05;8.35;;;;;;;18.58;67.17;98823.81;5012557;28;20470;-48
2022/08/31 02:32:56;;;;;;;14.75;8.15;;;;;;;18.56;67.08;98820.47;5014558;28;20057;-52
2022/08/31 02:35:21;;;;;;;12.20;8.00;;;;;;;18.57;67.02;98824.88;5032081;28;20033;-51
2022/08/31 02:37:47;;;;;;;12.77;8.38;;;;;;;18.54;67.09;98824.41;5030996;28;20061;-49
2022/08/31 02:40:12;;;;;;;11.93;7.47;;;;;;;18.55;66.57;98817.97;5015358;28;20041;-52
2022/08/31 02:42:38;;;;;;;9.57;7.28;;;;;;;18.49;66.83;98811.50;5011802;28;20026;-50
2022/08/31 02:45:05;;;;;;;12.63;7.75;;;;;;;18.51;66.86;98821.06;5010838;28;20064;-51
2022/08/31 02:47:31;;;;;;;14.00;8.20;;;;;;;18.48;66.88;98812.53;5012398;28;20040;-54
2022/08/31 02:49:57;;;;;;;12.50;8.20;;;;;;;18.51;66.87;98823.78;5013332;28;20394;-50
2022/08/31 02:52:23;;;;;;;11.63;7.15;;;;;;;18.51;66.83;98817.53;5011701;28;20056;-52
2022/08/31 02:54:48;;;;;;;10.32;7.95;;;;;;;18.53;66.65;98820.03;5016327;28;20034;-51
2022/08/31 02:57:14;;;;;;;9.57;7.88;;;;;;;18.53;66.75;98822.75;5031801;28;20034;-53
2022/08/31 02:59:40;;;;;;;11.60;7.55;;;;;;;18.51;66.72;98821.06;5031321;28;20037;-47
2022/08/31 03:02:05;;;;;;;13.35;7.75;;;;;;;18.50;66.55;98816.69;5031316;28;20116;-51
2022/08/31 03:04:31;;;;;;;13.80;8.18;;;;;;;18.54;66.64;98824.41;5011744;28;20030;-54
2022/08/31 03:06:57;;;;;;;11.82;8.50;;;;;;;18.53;66.29;98799.19;5011111;28;20077;-51
2022/08/31 03:09:23;;;;;;;11.65;7.20;;;;;;;18.59;66.30;98811.94;5012654;28;20046;-50
2022/08/31 03:11:48;;;;;;;10.50;7.03;;;;;;;18.62;66.00;98813.44;5011469;28;20030;-47
2022/08/31 03:14:13;;;;;;;11.55;7.40;;;;;;;18.65;66.03;98811.13;5011419;28;20454;-55
2022/08/31 03:16:40;;;;;;;11.07;7.82;;;;;;;18.70;65.61;98815.13;5014822;28;20473;-51
2022/08/31 03:19:06;;;;;;;15.30;7.90;;;;;;;18.75;65.39;98813.47;5029724;28;20475;-48
2022/08/31 03:21:32;;;;;;;13.60;6.90;;;;;;;18.80;65.21;98808.25;5031289;28;20021;-54
2022/08/31 03:23:57;;;;;;;13.75;7.53;;;;;;;18.96;64.77;98808.97;5016390;28;20036;-49
2022/08/31 03:26:23;;;;;;;10.85;7.22;;;;;;;19.18;63.75;98808.84;5011073;28;20025;-52
2022/08/31 03:28:48;;;;;;;12.23;7.35;;;;;;;19.57;62.60;98809.97;5011421;28;20062;-51
2022/08/31 03:31:14;;;;;;;12.57;7.20;;;;;;;20.18;61.03;98799.09;5027307;28;20103;-50
2022/08/31 03:33:39;;;;;;;11.98;6.38;;;;;;;21.10;57.79;98800.03;5030442;28;20415;-51
2022/08/31 03:36:06;;;;;;;13.75;6.63;;;;;;;22.13;54.89;98799.91;5031046;28;20055;-51
2022/08/31 03:38:31;;;;;;;13.40;6.95;;;;;;;23.19;51.46;98790.69;5011947;28;20066;-50
2022/08/31 03:40:58;;;;;;;7.25;6.15;;;;;;;24.06;48.89;98783.88;5011133;28;20131;-50
2022/08/31 03:43:23;;;;;;;7.72;5.38;;;;;;;24.91;46.60;98777.19;5019891;28;20041;-49
2022/08/31 03:45:49;;;;;;;8.30;5.47;;;;;;;25.70;44.30;98782.97;5030707;28;20037;-51
2022/08/31 03:48:15;;;;;;;7.93;5.85;;;;;;;26.32;42.89;98773.75;5029967;28;20025;-54
2022/08/31 03:50:42;;;;;;;9.85;5.70;;;;;;;27.01;41.40;98785.34;5010934;28;20477;-52
2022/08/31 03:53:08;;;;;;;9.00;5.72;;;;;;;27.71;39.18;98775.56;5011308;28;20036;-55
2022/08/31 03:55:37;;;;;;;6.75;5.22;;;;;;;28.32;37.73;98774.34;5021452;28;20030;-54
2022/08/31 03:58:02;;;;;;;10.23;5.00;;;;;;;28.77;37.14;98775.63;5030385;28;20477;-50
2022/08/31 04:00:28;;;;;;;11.57;5.13;;;;;;;29.34;35.33;98767.50;5030650;28;20061;-49
2022/08/31 04:02:58;;;;;;;8.00;5.30;;;;;;;29.91;34.19;98764.78;5029237;28;20407;-51
2022/08/31 04:05:25;;;;;;;9.25;4.55;;;;;;;30.38;33.32;98770.19;5010973;28;20045;-52
2022/08/31 04:07:51;;;;;;;8.60;4.68;;;;;;;30.88;32.48;98772.25;5010349;28;20061;-50
2022/08/31 04:10:17;;;;;;;7.10;4.82;;;;;;;31.30;31.91;98776.41;5011800;28;20471;-52
2022/08/31 04:12:42;;;;;;;9.63;4.78;;;;;;;31.67;31.02;98774.19;5011203;28;20037;-49
2022/08/31 04:15:09;;;;;;;10.07;5.00;;;;;;;31.99;30.59;98774.75;5010506;28;20070;-51
2022/08/31 04:17:34;;;;;;;7.82;5.20;;;;;;;32.37;29.58;98761.09;5031419;28;20063;-58
2022/08/31 04:20:00;;;;;;;5.43;4.75;;;;;;;32.59;29.45;98751.41;5034619;28;20468;-55
2022/08/31 04:22:26;;;;;;;11.75;4.72;;;;;;;32.94;28.82;98763.16;5032983;28;20030;-53
2022/08/31 04:24:51;;;;;;;13.18;5.32;;;;;;;33.23;28.43;98756.63;5014946;28;20030;-53
2022/08/31 04:27:17;;;;;;;9.43;5.20;;;;;;;33.61;27.62;98756.59;5014457;28;20034;-53
2022/08/31 04:29:42;;;;;;;6.70;5.20;;;;;;;34.14;27.04;98762.91;5018146;28;20108;-50
2022/08/31 04:32:08;;;;;;;7.88;5.00;;;;;;;34.49;26.26;98768.06;5034510;28;20041;-56
2022/08/31 04:34:33;;;;;;;8.95;4.97;;;;;;;34.63;25.94;98771.69;5034730;28;20033;-50
2022/08/31 04:36:59;;;;;;;7.53;5.00;;;;;;;35.04;25.07;98774.69;5019020;28;20381;-54
2022/08/31 04:39:24;;;;;;;6.78;4.93;;;;;;;35.54;25.01;98782.19;5014056;28;20644;-47
2022/08/31 04:41:50;;;;;;;7.72;4.93;;;;;;;36.01;23.87;98772.63;5014672;28;20030;-53
2022/08/31 04:44:15;;;;;;;6.63;4.45;;;;;;;36.39;23.27;98766.59;5030831;28;20035;-51
2022/08/31 04:46:41;;;;;;;7.05;4.53;;;;;;;36.71;23.04;98772.94;5032486;28;20033;-52
2022/08/31 04:49:09;;;;;;;11.90;4.78;;;;;;;37.04;22.57;98780.88;5026081;28;20037;-51
2022/08/31 04:51:37;;;;;;;5.68;4.10;;;;;;;37.62;21.70;98783.53;5014565;28;20049;-50
2022/08/31 04:54:06;;;;;;;5.82;4.25;;;;;;;37.80;21.69;98783.47;5014488;28;20489;-50
2022/08/31 04:56:34;;;;;;;8.02;4.45;;;;;;;37.66;21.67;98780.88;5032202;28;20060;-53
2022/08/31 04:59:03;;;;;;;12.32;4.30;;;;;;;37.33;22.00;98786.97;5033518;28;20044;-49
2022/08/31 05:01:37;;;;;;;6.57;3.72;;;;;;;37.73;22.09;98785.97;5033282;28;20029;-53
2022/08/31 05:04:04;;;;;;;10.10;3.75;;;;;;;37.23;21.73;98781.72;5031246;28;20022;-53
2022/08/31 05:06:32;;;;;;;5.95;3.70;;;;;;;36.06;23.38;98780.88;5013535;28;20049;-54
2022/08/31 05:09:10;;;;;;;6.60;3.58;;;;;;;34.73;25.33;98778.97;5013589;28;20041;-52
2022/08/31 05:11:36;;;;;;;7.32;3.35;;;;;;;33.23;26.86;98784.34;5032569;28;20037;-53
2022/08/31 05:14:04;;;;;;;4.68;3.45;;;;;;;32.18;28.47;98775.66;5033344;28;20105;-53
2022/08/31 05:16:31;;;;;;;7.82;3.67;;;;;;;30.99;30.22;98782.13;5030724;28;20033;-50
2022/08/31 05:18:57;;;;;;;6.63;4.20;;;;;;;30.93;30.56;98774.97;5013612;28;20073;-53
2022/08/31 05:21:32;;;;;;;6.10;3.85;;;;;;;33.63;26.73;98770.16;5013069;28;20038;-53
2022/08/31 05:24:00;;;;;;;6.97;4.40;;;;;;;36.20;23.41;98776.03;5027060;28;20059;-52
2022/08/31 05:26:30;;;;;;;7.07;3.92;;;;;;;38.08;20.98;98771.91;5033113;28;20346;-51
2022/08/31 05:28:57;;;;;;;6.38;4.13;;;;;;;39.14;19.95;98774.97;5025845;28;20037;-51
2022/08/31 05:31:25;;;;;;;6.88;3.92;;;;;;;39.46;19.70;98780.16;5013485;28;20037;-48
2022/08/31 05:33:50;;;;;;;6.30;3.80;;;;;;;39.69;19.24;98772.22;5017608;28;20154;-49
2022/08/31 05:36:16;;;;;;;8.82;4.40;;;;;;;38.62;20.30;98784.53;5012972;28;20033;-52
2022/08/31 05:38:42;;;;;;;7.65;4.28;;;;;;;36.77;21.95;98780.00;5014421;28;20042;-53
2022/08/31 05:41:09;;;;;;;9.25;4.15;;;;;;;34.46;24.81;98783.38;5027007;28;20480;-53
2022/08/31 05:43:35;;;;;;;6.30;4.40;;;;;;;32.24;28.31;98797.75;5026100;28;20409;-55
2022/08/31 05:46:00;;;;;;;8.50;3.80;;;;;;;30.42;31.11;98804.44;5028028;28;20034;-49
2022/08/31 05:48:26;;;;;;;7.55;4.07;;;;;;;28.99;33.89;98806.84;5015731;28;20060;-53
2022/08/31 05:50:53;;;;;;;8.48;3.90;;;;;;;27.78;36.26;98820.19;5012349;28;20046;-49
2022/08/31 05:53:18;;;;;;;7.35;3.90;;;;;;;26.75;38.34;98809.72;5013168;28;20049;-58
2022/08/31 05:55:44;;;;;;;12.52;4.32;;;;;;;25.85;40.11;98807.91;5032228;28;20116;-51
2022/08/31 05:58:11;;;;;;;12.85;4.53;;;;;;;25.00;42.29;98796.78;5033045;28;20025;-58
2022/08/31 06:00:38;;;;;;;8.95;4.75;;;;;;;24.50;43.29;98829.97;5031163;28;20112;-54
2022/08/31 06:03:04;;;;;;;8.43;4.55;;;;;;;24.06;44.38;98822.16;5032043;28;20033;-53
2022/08/31 06:05:30;;;;;;;7.85;4.55;;;;;;;23.66;45.64;98822.78;5031736;28;20905;-56
2022/08/31 06:07:55;;;;;;;17.08;4.90;;;;;;;23.46;46.11;98828.56;5023895;28;20041;-50
2022/08/31 06:10:21;;;;;;;7.47;4.70;;;;;;;23.25;46.52;98822.53;5012401;28;20779;-53
2022/08/31 06:12:47;;;;;;;8.48;4.32;;;;;;;23.00;47.18;98842.59;5011825;28;20126;-52
2022/08/31 06:15:14;;;;;;;8.95;4.40;;;;;;;22.79;47.09;98833.81;5020299;28;20037;-50
2022/08/31 06:17:40;;;;;;;11.93;4.30;;;;;;;22.54;47.84;98833.06;5032823;28;20026;-50
2022/08/31 06:20:07;;;;;;;8.98;5.95;;;;;;;22.31;48.30;98826.34;5032298;28;20112;-53
2022/08/31 06:22:35;;;;;;;5.75;4.03;;;;;;;22.30;48.33;98839.13;5012724;28;20137;-53
2022/08/31 06:25:05;;;;;;;10.23;4.55;;;;;;;22.08;48.65;98833.28;5016285;28;20794;-49
2022/08/31 06:27:32;;;;;;;15.48;7.57;;;;;;;22.35;48.65;98830.28;5021299;28;20065;-50
2022/08/31 06:29:57;;;;;;;11.07;6.57;;;;;;;25.79;40.21;98823.44;5012461;28;20034;-52
2022/08/31 06:32:25;;;;;;;8.25;3.42;;;;;;;28.63;33.37;98811.09;5011968;28;20036;-52
2022/08/31 06:34:50;;;;;;;6.15;3.13;;;;;;;30.61;29.96;98814.88;5014250;28;20037;-52
2022/08/31 06:37:16;;;;;;;7.25;3.00;;;;;;;31.10;28.48;98809.69;5031920;28;20036;-54
2022/08/31 06:39:41;;;;;;;5.90;3.00;;;;;;;32.55;26.69;98802.97;5032034;28;20124;-52
2022/08/31 06:42:07;;;;;;;7.18;4.50;;;;;;;32.48;26.64;98804.16;5023207;28;20108;-52
2022/08/31 06:44:32;;;;;;;8.05;3.20;;;;;;;31.34;27.80;98816.19;5031622;28;20068;-50
2022/08/31 06:46:57;;;;;;;4.88;2.75;;;;;;;29.97;29.66;98811.69;5031812;28;20033;-50
2022/08/31 06:49:23;;;;;;;7.65;5.72;;;;;;;28.60;32.09;98806.16;5014974;28;20483;-51
2022/08/31 06:51:49;;;;;;;10.43;2.53;;;;;;;27.26;34.50;98824.31;5011499;28;20053;-50
2022/08/31 06:54:18;;;;;;;7.88;3.13;;;;;;;26.26;36.69;98824.16;5011517;28;20109;-53
2022/08/31 06:56:44;;;;;;;10.23;3.55;;;;;;;25.56;38.19;98820.84;5023353;28;20451;-56
2022/08/31 06:59:10;;;;;;;5.75;2.60;;;;;;;25.02;39.20;98822.84;5031608;28;20072;-54
2022/08/31 07:01:35;;;;;;;7.22;2.97;;;;;;;24.48;40.15;98801.19;5030947;28;20033;-51
2022/08/31 07:04:07;;;;;;;9.57;3.00;;;;;;;24.18;41.12;98827.63;5030906;28;20132;-54
2022/08/31 07:06:38;;;;;;;6.35;2.90;;;;;;;24.06;41.73;98824.88;5020820;28;20045;-49
2022/08/31 07:09:07;;;;;;;3.97;2.55;;;;;;;25.35;39.40;98821.28;5014800;28;20127;-49
2022/08/31 07:11:36;;;;;;;5.25;2.67;;;;;;;26.35;36.84;98814.41;5011097;28;20037;-52
2022/08/31 07:14:03;;;;;;;6.10;2.72;;;;;;;26.47;36.58;98822.53;5025848;28;20041;-53
2022/08/31 07:16:29;;;;;;;5.80;3.50;;;;;;;26.45;36.58;98821.97;5030752;28;20034;-49
2022/08/31 07:18:58;;;;;;;6.38;3.08;;;;;;;26.32;36.97;98822.34;5017516;28;20068;-55
2022/08/31 07:21:27;;;;;;;6.95;3.05;;;;;;;25.73;38.13;98809.88;5012628;28;20091;-50
2022/08/31 07:23:55;;;;;;;7.57;3.35;;;;;;;25.19;39.28;98811.09;5017021;28;20029;-56
2022/08/31 07:26:48;;;;;;;6.80;3.72;;;;;;;25.25;39.47;98814.78;5026906;28;20043;-61
2022/08/31 07:29:17;;;;;;;5.45;2.90;;;;;;;24.87;40.25;98825.28;5024658;28;20037;-58
2022/08/31 07:31:45;;;;;;;8.43;3.20;;;;;;;24.55;41.01;98822.94;5027936;28;20041;-61
2022/08/31 07:34:18;;;;;;;4.82;3.17;;;;;;;24.08;41.76;98809.06;5011179;28;20030;-56
2022/08/31 07:42:18;;;;;;;5.95;2.83;;;;;;;23.35;43.70;98838.38;5011009;28;20037;-55
2022/08/31 07:44:47;;;;;;;5.22;2.60;;;;;;;23.18;44.29;98827.25;5010771;28;20175;-56
2022/08/31 07:47:14;;;;;;;7.30;2.75;;;;;;;23.15;44.66;98827.69;5016088;28;20026;-57
2022/08/31 07:49:46;;;;;;;5.13;2.55;;;;;;;23.13;44.47;98827.94;5007927;28;20030;-57
2022/08/31 07:52:14;;;;;;;5.05;3.33;;;;;;;23.08;44.82;98830.53;5029219;28;20075;-57
2022/08/31 07:54:43;;;;;;;6.78;2.80;;;;;;;23.00;45.01;98847.19;5023709;28;20025;-55
2022/08/31 07:57:09;;;;;;;11.63;3.38;;;;;;;22.82;45.40;98834.41;5019425;28;20446;-56
2022/08/31 07:59:38;;;;;;;5.63;2.92;;;;;;;22.71;46.02;98836.00;5014693;28;20539;-56
2022/08/31 08:02:04;;;;;;;5.05;2.60;;;;;;;22.60;47.10;98849.34;5011066;28;20041;-56
2022/08/31 08:04:30;;;;;;;4.63;2.80;;;;;;;22.34;47.78;98823.16;5010685;28;20033;-56
2022/08/31 08:06:59;;;;;;;3.83;2.03;;;;;;;22.45;47.93;98846.13;5013108;28;20130;-56
2022/08/31 08:09:28;;;;;;;3.53;2.25;;;;;;;22.48;47.24;98853.88;5010763;28;20385;-55
2022/08/31 08:11:56;;;;;;;4.13;2.30;;;;;;;22.58;46.97;98842.44;5028420;28;20532;-55
2022/08/31 08:14:23;;;;;;;4.18;2.30;;;;;;;22.98;45.88;98839.25;5027304;28;20061;-58
2022/08/31 08:16:49;;;;;;;8.02;2.90;;;;;;;23.56;44.74;98834.25;5015147;28;20030;-57
2022/08/31 08:19:15;;;;;;;7.18;2.65;;;;;;;24.33;42.79;98827.13;5009927;28;20088;-56
2022/08/31 08:21:42;;;;;;;7.97;5.03;;;;;;;25.01;41.09;98821.16;5023903;28;20125;-57
2022/08/31 08:24:09;;;;;;;7.32;3.35;;;;;;;25.30;40.16;98823.91;5029986;28;20042;-56
2022/08/31 08:26:36;;;;;;;9.15;2.63;;;;;;;25.22;40.07;98836.09;5023887;28;20156;-56
2022/08/31 08:29:04;;;;;;;14.65;2.58;;;;;;;24.88;40.90;98833.25;5018139;28;20068;-57
2022/08/31 08:31:30;;;;;;;3.65;2.40;;;;;;;24.30;41.68;98818.56;5009908;28;20038;-58
2022/08/31 08:33:56;;;;;;;7.85;2.10;;;;;;;23.88;43.04;98836.72;5010226;28;20108;-58
2022/08/31 08:36:21;;;;;;;6.80;2.70;;;;;;;23.47;45.14;98841.16;5016055;28;20030;-58
2022/08/31 08:38:49;;;;;;;4.63;2.50;;;;;;;23.14;45.83;98847.84;5009813;28;20096;-58
2022/08/31 08:41:18;;;;;;;5.18;2.25;;;;;;;22.93;46.89;98847.31;5010579;28;20029;-59
2022/08/31 08:43:48;;;;;;;6.05;2.50;;;;;;;22.89;47.02;98840.63;5010509;28;20386;-57
2022/08/31 08:46:15;;;;;;;5.47;2.20;;;;;;;22.96;46.50;98857.75;5025857;28;20033;-57
2022/08/31 08:48:42;;;;;;;4.00;2.22;;;;;;;23.13;45.81;98847.03;5018846;28;20034;-57
2022/08/31 08:51:13;;;;;;;3.35;2.40;;;;;;;23.21;45.33;98840.44;5027275;28;20036;-53
2022/08/31 08:53:41;;;;;;;5.07;2.25;;;;;;;23.08;45.61;98855.09;5016771;28;20108;-54
2022/08/31 08:56:10;;;;;;;5.35;2.03;;;;;;;23.03;45.94;98855.78;5021431;28;20040;-55
2022/08/31 08:58:39;;;;;;;6.95;2.17;;;;;;;23.22;45.48;98848.38;5024846;28;20068;-59
2022/08/31 09:01:08;;;;;;;8.10;2.33;;;;;;;23.64;44.55;98839.41;5014307;28;20030;-51
2022/08/31 09:03:48;;;;;;;5.63;2.15;;;;;;;24.06;43.44;98837.69;5009206;28;20038;-53
2022/08/31 09:06:25;;;;;;;9.88;4.22;;;;;;;24.27;43.10;98843.66;5012935;28;20046;-53
2022/08/31 09:09:07;;;;;;;6.75;2.10;;;;;;;24.66;42.18;98847.53;5012749;28;20056;-55
2022/08/31 09:12:06;;;;;;;3.92;1.90;;;;;;;25.22;40.64;98841.59;5030191;28;20064;-57
2022/08/31 09:15:00;;;;;;;4.10;1.90;;;;;;;25.31;40.07;98846.66;5032260;28;20035;-56
2022/08/31 09:17:32;;;;;;;7.38;2.47;;;;;;;25.08;40.63;98848.41;5017840;28;20450;-55
2022/08/31 09:19:59;;;;;;;6.53;2.00;;;;;;;24.74;41.45;98848.25;5016405;28;20057;-51
2022/08/31 09:22:30;;;;;;;7.40;2.10;;;;;;;24.32;42.08;98852.81;5027362;28;20029;-54
2022/08/31 09:24:58;;;;;;;4.93;1.90;;;;;;;23.79;43.58;98857.25;5033216;28;20053;-51
2022/08/31 09:27:44;;;;;;;7.72;2.20;;;;;;;23.71;43.91;98854.88;5030038;28;20118;-49
2022/08/31 09:30:30;;;;;;;4.93;1.50;;;;;;;23.61;44.33;98867.19;5032448;28;20136;-54
2022/08/31 09:32:56;;;;;;;3.72;1.50;;;;;;;23.90;43.36;98840.06;5032074;28;20112;-56
2022/08/31 09:35:40;;;;;;;5.47;1.58;;;;;;;24.33;42.29;98864.56;5015331;28;20099;-56
2022/08/31 09:38:09;;;;;;;3.33;1.35;;;;;;;24.31;41.83;98832.00;5012210;28;20034;-57
2022/08/31 09:40:48;;;;;;;9.90;1.77;;;;;;;24.85;41.44;98858.38;5013106;28;20038;-62
2022/08/31 09:43:36;;;;;;;3.47;1.50;;;;;;;25.25;40.33;98826.56;5012691;28;20386;-58
2022/08/31 09:46:11;;;;;;;7.10;1.60;;;;;;;25.88;39.08;98851.25;5018588;28;20044;-55
2022/08/31 09:48:50;;;;;;;2.43;1.80;;;;;;;26.25;38.00;98860.06;5026350;28;20029;-55
2022/08/31 09:51:28;;;;;;;3.33;1.60;;;;;;;26.51;37.66;98859.38;5022081;28;20026;-58
2022/08/31 09:56:55;;;;;;;4.25;1.50;;;;;;;26.79;36.28;98868.53;5030441;28;20109;-58
2022/08/31 09:59:42;;;;;;;4.13;1.63;;;;;;;27.06;36.35;98870.56;5027477;28;20045;-56
2022/08/31 10:02:36;;;;;;;5.97;1.40;;;;;;;27.10;36.30;98870.03;5030042;28;20046;-56
2022/08/31 10:05:27;;;;;;;4.32;1.40;;;;;;;27.18;36.42;98878.66;5031748;28;20052;-55
2022/08/31 10:08:08;;;;;;;6.85;1.70;;;;;;;27.15;36.27;98864.59;5032219;28;20125;-57
2022/08/31 10:10:37;;;;;;;3.95;1.73;;;;;;;26.83;36.79;98860.59;5032252;28;20026;-54
2022/08/31 10:13:26;;;;;;;3.55;1.90;;;;;;;26.48;37.16;98851.63;5031790;28;20115;-58
2022/08/31 10:16:24;;;;;;;4.25;1.40;;;;;;;26.30;37.95;98869.22;5031806;28;20040;-54
2022/08/31 10:19:01;;;;;;;3.28;1.50;;;;;;;26.27;37.97;98874.38;5031277;28;20056;-60
2022/08/31 10:21:52;;;;;;;3.20;1.67;;;;;;;26.25;37.82;98877.38;5032028;28;20029;-57
2022/08/31 10:24:37;;;;;;;3.25;1.67;;;;;;;26.14;38.09;98884.59;5031454;28;20029;-57
2022/08/31 10:27:30;;;;;;;2.25;1.30;;;;;;;26.05;38.21;98883.34;5032091;28;20120;-55
2022/08/31 10:30:11;;;;;;;4.95;1.50;;;;;;;25.79;39.57;98891.97;5032044;28;20038;-56
2022/08/31 10:32:44;;;;;;;4.22;1.50;;;;;;;25.49;41.39;98903.19;5031612;28;20029;-57
2022/08/31 10:35:21;;;;;;;4.35;1.48;;;;;;;25.16;43.67;98902.78;5031968;28;20037;-57
2022/08/31 10:38:24;;;;;;;3.88;1.70;;;;;;;24.81;43.49;98900.97;5032721;28;20030;-58
2022/08/31 10:41:08;;;;;;;2.92;1.75;;;;;;;24.25;45.59;98905.97;5031730;28;20049;-56
2022/08/31 10:43:43;;;;;;;2.60;1.52;;;;;;;23.63;47.61;98897.84;5031199;28;20025;-57
2022/08/31 10:46:09;;;;;;;;;;;;;;;23.92;45.22;98914.44;5031523;28;20121;-55
2022/08/31 10:48:36;;;;;;;;;;;;;;;23.79;45.61;98920.97;5031515;28;19983;-60
2022/08/31 10:51:42;;;;;;;4.82;1.30;;;;;;;23.30;50.07;98912.78;5031383;28;19943;-54
2022/08/31 10:54:23;;;;;;;8.15;1.90;;;;;;;22.89;50.98;98896.03;5030107;28;20120;-55
2022/08/31 10:57:13;;;;;;;4.88;1.70;;;;;;;22.87;50.78;98914.53;5031398;28;20037;-57
2022/08/31 10:59:47;;;;;;;2.97;1.48;;;;;;;22.97;51.15;98919.47;5030909;28;20037;-55
2022/08/31 11:02:33;;;;;;;1.77;1.35;;;;;;;22.98;49.31;98912.09;5030733;28;20021;-57
2022/08/31 11:05:16;;;;;;;2.33;1.33;;;;;;;22.92;49.69;98922.06;5031011;28;20061;-57
2022/08/31 11:08:11;;;;;;;2.03;0.88;;;;;;;23.01;48.53;98931.59;5030679;28;20041;-54
2022/08/31 11:10:50;;;;;;;1.20;1.10;;;;;;;22.89;48.75;98928.78;5030906;28;20037;-55
2022/08/31 11:13:25;;;;;;;5.18;1.15;;;;;;;23.03;49.05;98925.91;5030429;28;20409;-54
2022/08/31 11:15:53;;;;;;;2.60;1.07;;;;;;;23.05;48.69;98915.63;5030594;28;20040;-52
2022/08/31 11:18:47;;;;;;;4.35;1.33;;;;;;;23.16;48.80;98936.66;5030997;28;20037;-56
2022/08/31 11:21:21;;;;;;;2.85;1.48;;;;;;;23.21;49.38;98928.63;5030718;28;20117;-55
2022/08/31 11:24:31;;;;;;;6.38;1.70;;;;;;;23.55;48.54;98925.50;5030769;28;20034;-55
2022/08/31 11:27:16;;;;;;;5.57;1.20;;;;;;;23.68;48.59;98915.44;5030963;28;20037;-59
2022/08/31 11:29:45;;;;;;;4.60;1.30;;;;;;;23.92;47.59;98914.44;5030744;28;20045;-56
2022/08/31 11:32:20;;;;;;;1.60;1.08;;;;;;;24.10;46.81;98909.16;5030800;28;20099;-56
2022/08/31 11:34:52;;;;;;;6.75;1.58;;;;;;;24.15;46.78;98918.34;5031368;28;20453;-56
2022/08/31 11:37:51;;;;;;;3.05;1.38;;;;;;;24.38;46.59;98905.75;5031259;28;20048;-56
2022/08/31 11:40:42;;;;;;;2.47;1.30;;;;;;;24.32;46.36;98915.72;5030675;28;20037;-57
2022/08/31 11:43:34;;;;;;;6.05;1.52;;;;;;;24.41;46.13;98912.63;5030836;28;20047;-58
2022/08/31 11:46:44;;;;;;;3.50;1.58;;;;;;;24.59;45.54;98904.31;5030524;28;20083;-57
2022/08/31 11:49:33;;;;;;;2.03;1.17;;;;;;;24.56;44.73;98907.53;5027894;28;20025;-55
2022/08/31 11:51:59;;;;;;;2.05;1.05;;;;;;;24.64;43.53;98903.59;5030677;28;20025;-57
2022/08/31 11:54:40;;;;;;;4.20;1.10;;;;;;;24.45;43.67;98911.94;5031080;28;20033;-60
2022/08/31 11:57:07;;;;;;;3.53;1.02;;;;;;;24.20;43.07;98909.41;5030658;28;20143;-56
2022/08/31 11:59:38;;;;;;;8.65;1.02;;;;;;;24.00;42.58;98909.69;5029871;28;20041;-57